This is the latest recevied weather packets stored in our database for station/object NK7E-2. If no packets are shown the sender has not sent any weather packets the latest 10 day(s).
| Time | Temp. | Humidity | Pressure | Rain* | Wind** | Luminosity | Snow |
|---|---|---|---|---|---|---|---|
| 1788542416 | 28.33° C | 56% | 1028.3 hPa | 0 mm | - | - | - |
| 1788541816 | 28.33° C | 57% | 1028.3 hPa | 0 mm | - | - | - |
| 1788541216 | 28.33° C | 57% | 1028.4 hPa | 0 mm | - | - | - |
| 1788540616 | 27.78° C | 58% | 1028.1 hPa | 0 mm | - | - | - |
| 1788540016 | 27.78° C | 60% | 1028 hPa | 0 mm | - | - | - |
| 1788539416 | 27.78° C | 61% | 1028 hPa | 0 mm | - | - | - |
| 1788538816 | 27.22° C | 60% | 1027.9 hPa | 0 mm | - | - | - |
| 1788538216 | 27.22° C | 62% | 1027.9 hPa | 0 mm | - | - | - |
| 1788537616 | 26.67° C | 64% | 1027.7 hPa | 0 mm | - | - | - |
| 1788537016 | 26.11° C | 64% | 1027.3 hPa | 0 mm | - | - | - |
| 1788535816 | 26.11° C | 67% | 1026.9 hPa | 0 mm | - | - | - |
| 1788535216 | 25.56° C | 69% | 1026.9 hPa | 0 mm | - | - | - |
| 1788534616 | 24.44° C | 74% | 1026.7 hPa | 0 mm | - | - | - |
| 1788532818 | 22.78° C | 81% | 1026.9 hPa | 0 mm | - | - | - |
| 1788532216 | 22.78° C | 81% | 1026.8 hPa | 0 mm | - | - | - |
| 1788531617 | 22.78° C | 82% | 1026.5 hPa | 0 mm | - | - | - |
| 1788531017 | 22.22° C | 82% | 1026.3 hPa | 0 mm | - | - | - |
| 1788529818 | 21.67° C | 87% | 1025.9 hPa | 0 mm | - | - | - |
| 1788528617 | 21.67° C | 84% | 1025 hPa | 0 mm | - | - | - |
| 1788528017 | 21.67° C | 85% | 1024.9 hPa | 0 mm | - | - | - |
| 1788527417 | 21.67° C | 83% | 1025.7 hPa | 0 mm | - | - | - |
| 1788525017 | 22.78° C | 76% | 1025.4 hPa | 0 mm | - | - | - |
| 1788524417 | 23.33° C | 74% | 1025.7 hPa | 0 mm | - | - | - |
| 1788523817 | 23.33° C | 74% | 1025.6 hPa | 0 mm | - | - | - |
| 1788522017 | 23.33° C | 75% | 1026 hPa | 0 mm | - | - | - |
* Rain latest hour (hover to see other rain measurements)
** Current wind speed in m/s (hover to see current wind gust speed)